createdAt,value
2022-08-11T00:00:44.041Z,3.30
2022-08-11T00:01:23.687Z,3.40
2022-08-11T00:01:59.719Z,3.30
2022-08-11T00:02:34.917Z,2.80
2022-08-11T00:03:11.933Z,3.20
2022-08-11T00:04:01.937Z,4.00
2022-08-11T00:04:37.642Z,3.60
2022-08-11T00:05:19.056Z,3.50
2022-08-11T00:05:56.250Z,3.70
2022-08-11T00:06:35.577Z,3.30
2022-08-11T00:07:11.423Z,3.30
2022-08-11T00:07:55.421Z,3.30
2022-08-11T00:08:33.414Z,3.40
2022-08-11T00:09:13.435Z,3.80
2022-08-11T00:09:47.758Z,3.10
2022-08-11T00:10:24.124Z,3.50
2022-08-11T00:11:05.162Z,3.80
2022-08-11T00:11:46.828Z,3.60
2022-08-11T00:12:20.771Z,3.30
2022-08-11T00:13:03.302Z,3.30
2022-08-11T00:13:39.567Z,3.60
2022-08-11T00:14:22.012Z,3.40
2022-08-11T00:15:01.013Z,3.00
2022-08-11T00:15:45.993Z,3.30
2022-08-11T00:16:25.079Z,3.10
2022-08-11T00:17:11.373Z,2.60
2022-08-11T00:17:45.871Z,3.10
2022-08-11T00:18:19.549Z,3.10
2022-08-11T00:18:57.081Z,3.10
2022-08-11T00:20:12.686Z,2.80
2022-08-11T00:20:32.894Z,3.00
2022-08-11T00:21:06.971Z,3.10
2022-08-11T00:22:05.307Z,3.00
2022-08-11T00:22:41.549Z,2.90
2022-08-11T00:23:20.321Z,2.90
2022-08-11T00:24:00.893Z,2.90
2022-08-11T00:24:52.067Z,3.40
2022-08-11T00:25:30.279Z,3.30
2022-08-11T00:26:08.299Z,3.20
2022-08-11T00:26:49.328Z,3.30
2022-08-11T00:27:35.603Z,3.20
2022-08-11T00:28:26.906Z,3.30
2022-08-11T00:29:12.673Z,2.80
2022-08-11T00:29:55.435Z,3.40
2022-08-11T00:30:39.922Z,3.30
2022-08-11T00:31:30.576Z,3.10
2022-08-11T00:32:07.263Z,3.30
2022-08-11T00:32:44.795Z,3.20
2022-08-11T00:33:19.244Z,3.20
2022-08-11T00:33:53.910Z,3.20
2022-08-11T00:34:30.449Z,3.30
2022-08-11T00:35:54.533Z,3.10
2022-08-11T00:36:02.225Z,3.70
2022-08-11T00:37:08.097Z,2.90
2022-08-11T00:37:49.802Z,3.10
2022-08-11T00:38:30.634Z,2.80
2022-08-11T00:39:50.095Z,3.50
2022-08-11T00:40:53.538Z,3.20
2022-08-11T00:41:35.616Z,3.10
2022-08-11T00:42:51.251Z,3.40
2022-08-11T00:43:43.469Z,3.30
2022-08-11T00:44:22.419Z,3.20
2022-08-11T00:44:55.463Z,3.30
2022-08-11T00:45:51.710Z,2.80
2022-08-11T00:46:27.846Z,3.40
2022-08-11T00:47:23.231Z,3.30
2022-08-11T00:48:35.024Z,2.90
2022-08-11T00:49:25.662Z,3.00
2022-08-11T00:50:36.924Z,3.80
2022-08-11T00:51:24.020Z,3.10
2022-08-11T00:52:10.564Z,3.10
2022-08-11T00:53:02.441Z,3.10
2022-08-11T00:54:14.792Z,3.20
2022-08-11T00:55:03.473Z,3.30
2022-08-11T00:55:42.499Z,3.40
2022-08-11T00:56:23.617Z,3.70
2022-08-11T00:57:36.739Z,3.30
2022-08-11T00:58:51.009Z,3.00
2022-08-11T01:00:04.774Z,3.40
2022-08-11T01:00:59.592Z,3.40
2022-08-11T01:01:38.893Z,3.20
2022-08-11T01:02:14.571Z,2.90
2022-08-11T01:03:07.435Z,3.30
2022-08-11T01:03:52.456Z,3.00
2022-08-11T01:04:31.488Z,3.20
2022-08-11T01:05:19.916Z,3.40
2022-08-11T01:06:14.675Z,3.30
2022-08-11T01:07:14.351Z,2.70
2022-08-11T01:08:18.602Z,3.10
2022-08-11T01:08:57.540Z,2.90
2022-08-11T01:09:45.485Z,2.90
2022-08-11T01:10:45.520Z,2.80
2022-08-11T01:11:30.565Z,3.40
2022-08-11T01:12:30.567Z,3.50
2022-08-11T01:13:30.897Z,3.00
2022-08-11T01:14:34.689Z,3.10
2022-08-11T01:15:07.844Z,3.10
2022-08-11T01:16:05.873Z,3.60
2022-08-11T01:17:12.949Z,3.00
2022-08-11T01:18:12.835Z,3.00
2022-08-11T01:19:08.666Z,3.20
2022-08-11T01:20:46.906Z,3.60
2022-08-11T01:21:29.061Z,3.10
2022-08-11T01:22:40.510Z,2.90
2022-08-11T01:23:44.392Z,2.60
2022-08-11T01:24:23.377Z,3.40
2022-08-11T01:25:34.085Z,3.20
2022-08-11T01:27:04.742Z,3.10
2022-08-11T01:27:58.421Z,3.00
2022-08-11T01:28:55.961Z,3.00
2022-08-11T01:29:56.617Z,2.90
2022-08-11T01:30:57.101Z,3.20
2022-08-11T01:31:42.407Z,3.60
2022-08-11T01:32:53.028Z,3.80
2022-08-11T01:33:44.884Z,3.00
2022-08-11T01:34:26.808Z,3.40
2022-08-11T01:35:15.031Z,3.60
2022-08-11T01:36:09.499Z,2.90
2022-08-11T01:36:53.421Z,3.10
2022-08-11T01:38:06.519Z,3.50
2022-08-11T01:39:28.919Z,3.20
2022-08-11T01:41:08.605Z,2.80
2022-08-11T01:43:14.442Z,3.60
2022-08-11T01:44:24.792Z,3.30
2022-08-11T01:45:03.848Z,3.20
2022-08-11T01:45:43.220Z,3.10
2022-08-11T01:46:26.994Z,2.90
2022-08-11T01:47:54.365Z,3.50
2022-08-11T01:48:45.488Z,3.10
2022-08-11T01:50:08.617Z,3.50
2022-08-11T01:50:41.432Z,3.30
2022-08-11T01:52:20.045Z,3.80
2022-08-11T01:53:18.390Z,3.20
2022-08-11T01:54:01.567Z,3.10
2022-08-11T01:55:16.617Z,3.50
2022-08-11T01:56:01.588Z,3.40
2022-08-11T01:57:05.181Z,3.10
2022-08-11T01:57:46.550Z,3.00
2022-08-11T01:58:43.945Z,2.80
2022-08-11T01:59:34.023Z,3.30
2022-08-11T02:00:15.140Z,3.50
2022-08-11T02:01:02.800Z,3.40
2022-08-11T02:01:41.420Z,3.20
2022-08-11T02:02:47.875Z,3.00
2022-08-11T02:03:37.754Z,3.40
2022-08-11T02:04:31.762Z,3.10
2022-08-11T02:05:22.556Z,3.50
2022-08-11T02:06:32.822Z,3.30
2022-08-11T02:07:54.376Z,3.50
2022-08-11T02:09:00.776Z,3.00
2022-08-11T02:09:56.036Z,2.90
2022-08-11T02:11:16.916Z,2.80
2022-08-11T02:11:56.743Z,2.70
2022-08-11T02:13:01.176Z,3.10
2022-08-11T02:13:48.837Z,3.10
2022-08-11T02:14:28.932Z,3.50
2022-08-11T02:15:12.898Z,3.50
2022-08-11T02:15:57.124Z,3.00
2022-08-11T02:16:53.621Z,3.20
2022-08-11T02:17:40.687Z,3.20
2022-08-11T02:18:24.759Z,3.50
2022-08-11T02:19:35.382Z,3.30
2022-08-11T02:20:42.127Z,3.30
2022-08-11T02:21:44.480Z,3.40
2022-08-11T02:23:02.110Z,3.20
2022-08-11T02:24:05.374Z,2.80
2022-08-11T02:25:29.120Z,2.90
2022-08-11T02:26:11.437Z,2.60
2022-08-11T02:26:49.155Z,3.00
2022-08-11T02:27:25.517Z,2.70
2022-08-11T02:28:24.402Z,3.20
2022-08-11T02:29:25.726Z,3.20
2022-08-11T02:30:16.340Z,2.80
2022-08-11T02:32:14.611Z,3.00
2022-08-11T02:32:44.190Z,3.30
2022-08-11T02:33:24.879Z,2.70
2022-08-11T02:35:00.077Z,3.00
2022-08-11T02:35:43.028Z,3.30
2022-08-11T02:36:29.678Z,3.00
2022-08-11T02:37:24.749Z,3.00
2022-08-11T02:38:31.207Z,3.00
2022-08-11T02:39:12.411Z,2.80
2022-08-11T02:40:33.968Z,3.00
2022-08-11T02:41:44.332Z,2.60
2022-08-11T02:42:35.903Z,2.90
2022-08-11T02:43:10.871Z,3.00
2022-08-11T02:44:05.158Z,2.70
2022-08-11T02:44:51.962Z,3.10
2022-08-11T02:45:48.390Z,3.10
2022-08-11T02:46:32.017Z,3.10
2022-08-11T02:47:33.336Z,2.80
2022-08-11T02:49:11.403Z,2.70
2022-08-11T02:50:07.410Z,2.70
2022-08-11T02:50:56.314Z,2.80
2022-08-11T02:51:55.827Z,3.30
2022-08-11T02:52:45.925Z,3.30
2022-08-11T02:53:41.276Z,4.10
2022-08-11T02:54:36.058Z,3.10
2022-08-11T02:56:01.715Z,3.70
2022-08-11T02:56:58.008Z,3.20
2022-08-11T02:57:51.305Z,2.90
2022-08-11T02:58:40.677Z,3.00
2022-08-11T02:59:36.384Z,2.40
2022-08-11T03:00:13.540Z,3.20
2022-08-11T03:00:57.368Z,3.00
2022-08-11T03:01:50.828Z,2.60
2022-08-11T03:02:44.361Z,2.70
2022-08-11T03:04:02.523Z,2.80
2022-08-11T03:04:50.288Z,3.40
2022-08-11T03:05:38.306Z,3.20
2022-08-11T03:06:36.322Z,3.00
2022-08-11T03:07:28.902Z,2.90
2022-08-11T03:08:08.827Z,3.40
2022-08-11T03:08:58.926Z,3.10
2022-08-11T03:09:37.847Z,2.90
2022-08-11T03:10:22.729Z,3.60
2022-08-11T03:11:36.966Z,3.30
2022-08-11T03:12:31.215Z,3.30
2022-08-11T03:13:39.874Z,2.90
2022-08-11T03:15:05.946Z,3.50
2022-08-11T03:16:37.230Z,3.00
2022-08-11T03:17:19.609Z,2.80
2022-08-11T03:18:47.302Z,2.70
2022-08-11T03:19:30.300Z,3.10
2022-08-11T03:20:15.726Z,3.10
2022-08-11T03:21:09.631Z,3.40
2022-08-11T03:22:03.195Z,3.30
2022-08-11T03:22:58.221Z,3.00
2022-08-11T03:23:59.571Z,3.40
2022-08-11T03:25:02.915Z,3.10
2022-08-11T03:25:51.332Z,3.10
2022-08-11T03:26:44.172Z,3.30
2022-08-11T03:27:37.300Z,3.40
2022-08-11T03:28:49.183Z,3.00
2022-08-11T03:29:41.469Z,2.90
2022-08-11T03:30:19.850Z,3.10
2022-08-11T03:31:04.908Z,3.20
2022-08-11T03:31:47.193Z,3.30
2022-08-11T03:33:12.381Z,3.30
2022-08-11T03:34:08.157Z,3.30
2022-08-11T03:34:45.725Z,3.30
2022-08-11T03:35:21.547Z,3.70
2022-08-11T03:36:09.717Z,3.30
2022-08-11T03:37:39.436Z,3.40
2022-08-11T03:38:17.261Z,3.20
2022-08-11T03:39:08.666Z,3.50
2022-08-11T03:39:57.307Z,4.00
2022-08-11T03:40:54.329Z,3.60
2022-08-11T03:42:01.914Z,2.70
2022-08-11T03:42:56.091Z,2.70
2022-08-11T03:43:39.121Z,3.20
2022-08-11T03:44:47.191Z,2.90
2022-08-11T03:45:37.439Z,3.40
2022-08-11T03:46:46.365Z,3.70
2022-08-11T03:47:37.390Z,3.00
2022-08-11T03:48:30.077Z,3.40
2022-08-11T03:49:15.870Z,3.80
2022-08-11T03:50:17.161Z,3.10
2022-08-11T03:51:12.486Z,3.80
2022-08-11T03:51:55.855Z,3.20
2022-08-11T03:52:50.260Z,3.40
2022-08-11T03:53:56.011Z,3.50
2022-08-11T03:54:38.305Z,3.80
2022-08-11T03:55:39.389Z,3.20
2022-08-11T03:56:49.746Z,3.30
2022-08-11T03:57:28.739Z,4.50
2022-08-11T03:58:20.463Z,3.80
2022-08-11T03:58:53.567Z,4.30
2022-08-11T04:00:02.541Z,4.10
2022-08-11T04:01:13.033Z,3.60
2022-08-11T04:02:23.341Z,2.90
2022-08-11T04:03:14.789Z,3.10
2022-08-11T04:04:12.265Z,3.30
2022-08-11T04:05:00.982Z,3.20
2022-08-11T04:06:09.048Z,3.00
2022-08-11T04:06:49.027Z,3.30
2022-08-11T04:08:07.566Z,3.30
2022-08-11T04:09:24.242Z,2.90
2022-08-11T04:10:21.300Z,2.90
2022-08-11T04:11:00.139Z,2.80
2022-08-11T04:12:05.541Z,3.30
2022-08-11T04:13:09.523Z,2.80
2022-08-11T04:14:39.116Z,3.00
2022-08-11T04:15:52.438Z,3.20
2022-08-11T04:16:47.048Z,3.20
2022-08-11T04:17:38.935Z,2.80
2022-08-11T04:18:32.448Z,2.80
2022-08-11T04:19:30.431Z,3.00
2022-08-11T04:20:34.837Z,3.20
2022-08-11T04:21:17.065Z,3.20
2022-08-11T04:22:14.578Z,3.10
2022-08-11T04:23:08.731Z,3.10
2022-08-11T04:24:36.133Z,3.40
2022-08-11T04:24:58.641Z,2.90
2022-08-11T04:26:00.149Z,3.00
2022-08-11T04:26:39.391Z,3.20
2022-08-11T04:27:53.361Z,3.10
2022-08-11T04:28:56.850Z,3.00
2022-08-11T04:30:03.470Z,3.20
2022-08-11T04:30:53.258Z,3.00
2022-08-11T04:31:51.831Z,3.00
2022-08-11T04:33:13.544Z,3.30
2022-08-11T04:34:07.143Z,3.20
2022-08-11T04:35:08.620Z,3.80
2022-08-11T04:37:25.859Z,3.00
2022-08-11T04:38:59.159Z,3.20
2022-08-11T04:39:49.707Z,3.30
2022-08-11T04:40:25.860Z,3.40
2022-08-11T04:41:20.853Z,3.20
2022-08-11T04:42:32.586Z,3.70
2022-08-11T04:44:04.608Z,3.50
2022-08-11T04:44:51.489Z,3.10
2022-08-11T04:45:41.142Z,3.20
2022-08-11T04:46:33.090Z,3.10
2022-08-11T04:48:03.793Z,3.10
2022-08-11T04:49:26.325Z,3.20
2022-08-11T04:51:16.703Z,3.20
2022-08-11T04:52:48.028Z,3.30
2022-08-11T04:54:02.937Z,3.10
2022-08-11T04:55:21.292Z,3.30
2022-08-11T04:56:28.531Z,3.10
2022-08-11T04:57:32.219Z,3.50
2022-08-11T04:58:40.601Z,2.80
2022-08-11T04:59:47.995Z,3.20
2022-08-11T05:00:48.941Z,3.10
2022-08-11T05:02:06.106Z,3.50
2022-08-11T05:03:28.529Z,3.30
2022-08-11T05:04:58.262Z,3.90
2022-08-11T05:05:57.187Z,3.30
2022-08-11T05:06:44.409Z,4.40
2022-08-11T05:07:49.800Z,3.40
2022-08-11T05:08:47.715Z,3.70
2022-08-11T05:09:48.772Z,3.20
2022-08-11T05:10:24.704Z,2.90
2022-08-11T05:11:35.345Z,3.50
2022-08-11T05:12:14.436Z,2.70
2022-08-11T05:13:19.630Z,3.70
2022-08-11T05:14:29.894Z,2.70
2022-08-11T05:15:24.026Z,2.90
2022-08-11T05:16:28.956Z,2.90
2022-08-11T05:17:31.270Z,3.20
2022-08-11T05:18:34.238Z,3.30
2022-08-11T05:19:26.253Z,3.30
2022-08-11T05:20:19.350Z,3.10
2022-08-11T05:21:16.797Z,3.20
2022-08-11T05:22:16.615Z,3.50
2022-08-11T05:23:12.078Z,3.40
2022-08-11T05:24:08.350Z,3.00
2022-08-11T05:25:08.658Z,2.70
2022-08-11T05:26:44.800Z,2.80
2022-08-11T05:27:22.197Z,2.90
2022-08-11T05:28:22.324Z,3.00
2022-08-11T05:29:21.693Z,3.00
2022-08-11T05:30:25.751Z,3.40
2022-08-11T05:31:24.084Z,3.20
2022-08-11T05:32:19.826Z,3.40
2022-08-11T05:33:41.177Z,3.50
2022-08-11T05:34:55.727Z,3.30
2022-08-11T05:36:01.800Z,3.20
2022-08-11T05:36:47.877Z,3.70
2022-08-11T05:37:34.585Z,3.40
2022-08-11T05:38:44.930Z,3.40
2022-08-11T05:39:43.266Z,3.70
2022-08-11T05:40:35.944Z,3.40
2022-08-11T05:41:33.290Z,3.10
2022-08-11T05:42:30.206Z,3.70
2022-08-11T05:43:30.662Z,3.50
2022-08-11T05:44:24.637Z,3.60
2022-08-11T05:45:52.735Z,3.70
2022-08-11T05:46:47.788Z,3.30
2022-08-11T05:47:45.265Z,3.60
2022-08-11T05:48:38.558Z,3.40
2022-08-11T05:49:32.540Z,3.80
2022-08-11T05:50:31.437Z,3.30
2022-08-11T05:52:31.914Z,3.40
2022-08-11T05:54:37.030Z,3.10
2022-08-11T05:55:33.941Z,3.40
2022-08-11T05:56:21.064Z,3.40
2022-08-11T05:57:01.148Z,3.10
2022-08-11T05:57:48.496Z,3.20
2022-08-11T05:58:26.010Z,3.10
2022-08-11T05:59:00.103Z,3.20
2022-08-11T05:59:35.493Z,3.60
2022-08-11T06:00:10.996Z,3.50
2022-08-11T06:00:47.129Z,3.60
2022-08-11T06:01:26.028Z,3.20
2022-08-11T06:02:04.964Z,3.20
2022-08-11T06:02:55.698Z,3.30
2022-08-11T06:03:32.645Z,3.40
2022-08-11T06:04:16.957Z,3.80
2022-08-11T06:05:00.182Z,3.20
2022-08-11T06:05:37.316Z,4.30
2022-08-11T06:06:17.115Z,3.40
2022-08-11T06:07:01.201Z,3.90
2022-08-11T06:07:48.372Z,3.40
2022-08-11T06:08:36.397Z,3.60
2022-08-11T06:09:12.077Z,3.20
2022-08-11T06:09:45.233Z,3.30
2022-08-11T06:10:34.800Z,3.40
2022-08-11T06:11:08.116Z,3.20
2022-08-11T06:11:45.133Z,3.40
2022-08-11T06:12:31.186Z,3.60
2022-08-11T06:13:08.570Z,3.40
2022-08-11T06:13:46.729Z,3.80
2022-08-11T06:14:23.845Z,3.20
2022-08-11T06:15:02.369Z,3.20
2022-08-11T06:15:48.749Z,3.80
2022-08-11T06:16:28.475Z,3.20
2022-08-11T06:17:05.852Z,3.90
2022-08-11T06:17:48.250Z,3.70
2022-08-11T06:18:22.912Z,3.50
2022-08-11T06:18:57.111Z,3.60
2022-08-11T06:19:41.198Z,3.50
2022-08-11T06:20:17.252Z,3.60
2022-08-11T06:20:55.419Z,3.60
2022-08-11T06:21:29.502Z,3.60
2022-08-11T06:22:06.144Z,3.80
2022-08-11T06:22:42.351Z,3.60
2022-08-11T06:23:20.099Z,3.40
2022-08-11T06:23:54.610Z,3.20
2022-08-11T06:24:29.617Z,3.30
2022-08-11T06:25:06.478Z,3.40
2022-08-11T06:25:39.969Z,3.50
2022-08-11T06:26:15.219Z,3.30
2022-08-11T06:27:46.826Z,4.20
2022-08-11T06:28:31.048Z,3.60
2022-08-11T06:29:06.867Z,3.10
2022-08-11T06:29:55.235Z,3.30
2022-08-11T06:30:40.105Z,3.40
2022-08-11T06:31:25.551Z,3.70
2022-08-11T06:32:04.789Z,3.50
2022-08-11T06:32:40.208Z,3.50
2022-08-11T06:33:16.136Z,3.30
2022-08-11T06:34:27.412Z,3.40
2022-08-11T06:35:25.343Z,3.60
2022-08-11T06:36:40.042Z,3.60
2022-08-11T06:37:36.231Z,3.90
2022-08-11T06:38:23.945Z,3.40
2022-08-11T06:39:13.893Z,3.70
2022-08-11T06:40:01.780Z,3.40
2022-08-11T06:40:42.653Z,3.50
2022-08-11T06:41:58.298Z,3.10
2022-08-11T06:42:41.214Z,3.20
2022-08-11T06:43:22.518Z,3.60
2022-08-11T06:44:16.347Z,3.80
2022-08-11T06:44:59.008Z,3.40
2022-08-11T06:45:49.309Z,3.30
2022-08-11T06:46:39.230Z,3.50
2022-08-11T06:47:16.319Z,3.10
2022-08-11T06:47:50.406Z,3.50
2022-08-11T06:48:26.383Z,3.70
2022-08-11T06:49:03.668Z,4.00
2022-08-11T06:50:06.667Z,3.70
2022-08-11T06:50:58.302Z,3.60
2022-08-11T06:51:34.949Z,4.10
2022-08-11T06:52:35.192Z,3.40
2022-08-11T06:53:10.959Z,3.50
2022-08-11T06:54:03.425Z,3.50
2022-08-11T06:54:45.091Z,3.30
2022-08-11T06:55:57.505Z,2.60
2022-08-11T06:58:07.754Z,3.30
2022-08-11T06:59:01.047Z,3.10
2022-08-11T06:59:56.793Z,3.20
2022-08-11T07:00:33.856Z,3.80
2022-08-11T07:01:14.016Z,3.40
2022-08-11T07:02:06.253Z,3.00
2022-08-11T07:03:10.679Z,3.30
2022-08-11T07:03:48.254Z,2.90
2022-08-11T07:04:31.601Z,2.90
2022-08-11T07:05:19.726Z,3.30
2022-08-11T07:06:03.424Z,3.20
2022-08-11T07:07:11.232Z,3.10
2022-08-11T07:08:44.710Z,2.80
2022-08-11T07:09:50.645Z,2.50
2022-08-11T07:11:17.036Z,3.10
2022-08-11T07:12:11.880Z,2.90
2022-08-11T07:13:09.122Z,3.00
2022-08-11T07:14:23.061Z,4.20
2022-08-11T07:15:15.717Z,3.40
2022-08-11T07:16:12.444Z,3.10
2022-08-11T07:16:50.731Z,3.10
2022-08-11T07:17:25.730Z,2.90
2022-08-11T07:18:24.351Z,3.20
2022-08-11T07:19:22.068Z,2.90
2022-08-11T07:20:17.343Z,3.50
2022-08-11T07:21:59.981Z,2.90
2022-08-11T07:22:26.286Z,2.50
2022-08-11T07:23:21.112Z,2.90
2022-08-11T07:24:15.931Z,3.40
2022-08-11T07:25:31.913Z,2.60
2022-08-11T07:26:24.693Z,2.50
2022-08-11T07:27:18.923Z,2.70
2022-08-11T07:28:38.163Z,2.80
2022-08-11T07:29:15.442Z,2.60
2022-08-11T07:29:51.642Z,2.90
2022-08-11T07:30:27.375Z,2.60
2022-08-11T07:31:18.379Z,2.60
2022-08-11T07:31:54.439Z,2.90
2022-08-11T07:32:32.071Z,2.50
2022-08-11T07:33:06.707Z,2.70
2022-08-11T07:34:08.270Z,2.80
2022-08-11T07:34:49.833Z,2.40
2022-08-11T07:35:37.544Z,2.70
2022-08-11T07:36:14.998Z,2.50
2022-08-11T07:36:58.369Z,2.80
2022-08-11T07:37:34.341Z,2.80
2022-08-11T07:38:25.470Z,3.00
2022-08-11T07:39:01.134Z,2.80
2022-08-11T07:39:39.212Z,3.00
2022-08-11T07:40:13.222Z,2.80
2022-08-11T07:40:47.609Z,2.80
2022-08-11T07:41:24.382Z,3.60
2022-08-11T07:42:00.471Z,2.80
2022-08-11T07:42:36.598Z,3.40
2022-08-11T07:43:12.676Z,2.90
2022-08-11T07:43:49.822Z,2.30
2022-08-11T07:44:35.054Z,2.20
2022-08-11T07:45:29.409Z,2.50
2022-08-11T07:46:23.594Z,3.00
2022-08-11T07:47:16.448Z,2.40
2022-08-11T07:48:11.781Z,2.70
2022-08-11T07:49:03.509Z,2.70
2022-08-11T07:49:57.665Z,2.80
2022-08-11T07:50:55.891Z,2.90
2022-08-11T07:51:48.300Z,2.90
2022-08-11T07:52:34.183Z,2.50
2022-08-11T07:53:08.539Z,2.90
2022-08-11T07:53:57.837Z,2.80
2022-08-11T07:54:38.384Z,2.80
2022-08-11T07:55:18.178Z,2.70
2022-08-11T07:55:56.678Z,2.40
2022-08-11T07:56:54.887Z,2.10
2022-08-11T07:58:08.727Z,2.10
2022-08-11T07:59:07.544Z,2.30
2022-08-11T08:00:04.598Z,2.20
2022-08-11T08:01:09.896Z,2.40
2022-08-11T08:02:13.853Z,2.40
2022-08-11T08:03:06.409Z,2.50
2022-08-11T08:04:00.701Z,2.30
2022-08-11T08:04:53.772Z,2.50
2022-08-11T08:05:46.057Z,2.90
2022-08-11T08:06:38.727Z,2.40
2022-08-11T08:07:30.308Z,2.40
2022-08-11T08:08:23.516Z,2.70
2022-08-11T08:09:16.829Z,2.60
2022-08-11T08:10:10.107Z,2.30
2022-08-11T08:11:06.700Z,2.50
2022-08-11T08:12:00.076Z,2.70
2022-08-11T08:12:54.354Z,2.70
2022-08-11T08:13:45.859Z,3.00
2022-08-11T08:14:41.782Z,2.80
2022-08-11T08:15:36.209Z,2.90
2022-08-11T08:16:27.822Z,3.20
2022-08-11T08:17:19.771Z,2.90
2022-08-11T08:18:08.948Z,3.10
2022-08-11T08:18:51.841Z,2.80
2022-08-11T08:19:26.401Z,3.00
2022-08-11T08:20:00.952Z,3.20
2022-08-11T08:20:40.905Z,3.70
2022-08-11T08:21:15.402Z,3.60
2022-08-11T08:21:49.948Z,3.20
2022-08-11T08:22:39.161Z,3.50
2022-08-11T08:23:13.721Z,3.10
2022-08-11T08:23:47.994Z,2.70
2022-08-11T08:24:29.144Z,2.80
2022-08-11T08:25:03.346Z,3.00
2022-08-11T08:25:41.198Z,2.90
2022-08-11T08:26:35.567Z,3.20
2022-08-11T08:27:14.084Z,2.60
2022-08-11T08:27:49.588Z,2.80
2022-08-11T08:28:22.900Z,2.60
2022-08-11T08:29:18.724Z,2.70
2022-08-11T08:30:11.607Z,2.70
2022-08-11T08:30:51.318Z,2.40
2022-08-11T08:31:26.321Z,2.60
2022-08-11T08:32:02.736Z,3.00
2022-08-11T08:32:40.857Z,3.00
2022-08-11T08:33:22.243Z,3.40
2022-08-11T08:33:57.588Z,3.00
2022-08-11T08:34:32.329Z,2.90
2022-08-11T08:35:10.908Z,2.50
2022-08-11T08:35:54.311Z,2.50
2022-08-11T08:36:29.193Z,2.50
2022-08-11T08:37:02.687Z,2.40
2022-08-11T08:37:53.002Z,2.80
2022-08-11T08:38:26.417Z,2.70
2022-08-11T08:38:59.771Z,2.80
2022-08-11T08:39:38.190Z,2.80
2022-08-11T08:40:13.646Z,2.90
2022-08-11T08:40:55.634Z,2.80
2022-08-11T08:41:33.510Z,2.90
2022-08-11T08:42:13.900Z,2.60
2022-08-11T08:42:55.467Z,2.80
2022-08-11T08:43:29.188Z,2.90
2022-08-11T08:44:36.672Z,2.50
2022-08-11T08:45:19.021Z,2.80
2022-08-11T08:45:57.332Z,2.50
2022-08-11T08:46:50.830Z,2.90
2022-08-11T08:47:41.597Z,2.50
2022-08-11T08:48:21.138Z,2.50
2022-08-11T08:48:55.562Z,2.70
2022-08-11T08:49:40.223Z,2.70
2022-08-11T08:50:20.923Z,2.70
2022-08-11T08:52:01.424Z,2.30
2022-08-11T08:52:33.224Z,2.60
2022-08-11T08:53:23.274Z,2.60
2022-08-11T08:54:08.543Z,2.70
2022-08-11T08:54:44.845Z,2.50
2022-08-11T08:55:20.656Z,2.40
2022-08-11T08:55:57.015Z,3.10
2022-08-11T08:56:34.376Z,2.80
2022-08-11T08:57:10.202Z,2.80
2022-08-11T08:57:45.728Z,3.20
2022-08-11T08:58:23.581Z,3.00
2022-08-11T08:59:00.720Z,3.50
2022-08-11T08:59:48.776Z,2.70
2022-08-11T09:00:24.316Z,2.20
2022-08-11T09:01:01.481Z,2.20
2022-08-11T09:01:43.428Z,2.80
2022-08-11T09:02:33.984Z,2.50
2022-08-11T09:03:36.625Z,2.80
2022-08-11T09:04:11.817Z,2.70
2022-08-11T09:04:48.350Z,2.50
2022-08-11T09:05:22.438Z,2.90
2022-08-11T09:05:56.756Z,2.90
2022-08-11T09:06:34.081Z,2.90
2022-08-11T09:07:13.254Z,2.60
2022-08-11T09:07:51.424Z,2.60
2022-08-11T09:08:25.568Z,2.70
2022-08-11T09:09:00.326Z,2.50
2022-08-11T09:09:34.181Z,2.50
2022-08-11T09:10:11.055Z,2.10
2022-08-11T09:11:13.426Z,2.10
2022-08-11T09:11:55.882Z,2.10
2022-08-11T09:12:38.439Z,2.10
2022-08-11T09:13:21.233Z,2.20
2022-08-11T09:14:03.291Z,2.40
2022-08-11T09:15:02.318Z,2.40
2022-08-11T09:15:37.944Z,2.40
2022-08-11T09:16:12.454Z,2.30
2022-08-11T09:16:46.989Z,2.10
2022-08-11T09:17:22.123Z,2.20
2022-08-11T09:18:02.026Z,2.00
2022-08-11T09:18:37.841Z,2.30
2022-08-11T09:19:18.686Z,1.90
2022-08-11T09:20:03.261Z,2.00
2022-08-11T09:20:39.141Z,1.90
2022-08-11T09:21:34.188Z,2.20
2022-08-11T09:22:38.362Z,2.40
2022-08-11T09:24:43.599Z,2.10
2022-08-11T09:25:38.214Z,2.30
2022-08-11T09:26:31.297Z,2.10
2022-08-11T09:27:11.543Z,2.50
2022-08-11T09:27:50.195Z,2.60
2022-08-11T09:28:29.928Z,2.50
2022-08-11T09:29:05.099Z,2.40
2022-08-11T09:29:39.938Z,2.80
2022-08-11T09:30:13.555Z,2.60
2022-08-11T09:30:54.259Z,2.60
2022-08-11T09:32:13.214Z,2.60
2022-08-11T09:32:48.625Z,2.30
2022-08-11T09:33:23.737Z,2.50
2022-08-11T09:33:56.991Z,2.30
2022-08-11T09:34:30.680Z,2.50
2022-08-11T09:35:05.682Z,2.50
2022-08-11T09:35:44.260Z,2.80
2022-08-11T09:36:39.078Z,2.30
2022-08-11T09:37:54.542Z,2.60
2022-08-11T09:38:49.730Z,2.70
2022-08-11T09:39:42.782Z,2.30
2022-08-11T09:40:29.483Z,2.70
2022-08-11T09:41:09.524Z,2.50
2022-08-11T09:41:55.581Z,2.40
2022-08-11T09:43:02.981Z,2.50
2022-08-11T09:44:04.195Z,2.50
2022-08-11T09:44:50.154Z,2.60
2022-08-11T09:45:24.454Z,2.80
2022-08-11T09:46:00.190Z,2.80
2022-08-11T09:46:33.913Z,2.80
2022-08-11T09:47:15.620Z,2.90
2022-08-11T09:47:49.380Z,2.60
2022-08-11T09:48:25.912Z,2.80
2022-08-11T09:49:02.291Z,2.90
2022-08-11T09:49:38.227Z,2.60
2022-08-11T09:50:16.098Z,2.90
2022-08-11T09:50:52.266Z,2.40
2022-08-11T09:51:30.617Z,2.50
2022-08-11T09:52:09.793Z,2.50
2022-08-11T09:53:03.854Z,2.60
2022-08-11T09:53:47.128Z,2.20
2022-08-11T09:54:37.297Z,2.40
2022-08-11T09:55:13.719Z,2.40
2022-08-11T09:55:49.691Z,2.80
2022-08-11T09:56:44.154Z,2.90
2022-08-11T09:57:40.496Z,2.70
2022-08-11T09:58:42.549Z,2.40
2022-08-11T09:59:10.950Z,2.30
2022-08-11T09:59:44.336Z,2.70
2022-08-11T10:00:17.890Z,2.70
2022-08-11T10:00:57.289Z,2.20
2022-08-11T10:01:47.350Z,2.60
2022-08-11T10:02:28.203Z,2.90
2022-08-11T10:03:03.040Z,2.80
2022-08-11T10:03:41.697Z,3.10
2022-08-11T10:04:22.783Z,2.60
2022-08-11T10:05:19.360Z,2.90
2022-08-11T10:06:32.848Z,3.00
2022-08-11T10:07:11.227Z,2.60
2022-08-11T10:07:53.108Z,2.40
2022-08-11T10:08:31.367Z,2.40
2022-08-11T10:09:08.091Z,2.60
2022-08-11T10:09:42.606Z,2.70
2022-08-11T10:10:16.120Z,2.40
2022-08-11T10:10:50.227Z,2.50
2022-08-11T10:11:26.435Z,2.90
2022-08-11T10:12:03.151Z,2.70
2022-08-11T10:12:42.830Z,3.00
2022-08-11T10:14:31.005Z,3.00
2022-08-11T10:14:44.397Z,2.30
2022-08-11T10:15:35.989Z,2.20
2022-08-11T10:16:15.174Z,2.60
2022-08-11T10:17:25.909Z,2.10
2022-08-11T10:18:32.850Z,2.20
2022-08-11T10:19:09.017Z,2.20
2022-08-11T10:20:01.948Z,2.40
2022-08-11T10:20:40.417Z,2.50
2022-08-11T10:21:38.617Z,2.10
2022-08-11T10:22:34.370Z,2.50
2022-08-11T10:23:29.309Z,2.50
2022-08-11T10:24:23.049Z,2.80
2022-08-11T10:25:19.662Z,2.70
2022-08-11T10:26:14.149Z,2.20
2022-08-11T10:26:53.672Z,2.10
2022-08-11T10:28:16.973Z,2.10
2022-08-11T10:28:36.413Z,1.80
2022-08-11T10:29:44.226Z,2.30
2022-08-11T10:30:37.604Z,2.30
2022-08-11T10:31:57.100Z,2.30
2022-08-11T10:32:58.536Z,2.30
2022-08-11T10:33:59.141Z,2.50
2022-08-11T10:34:34.076Z,2.40
2022-08-11T10:35:12.920Z,2.10
2022-08-11T10:35:46.338Z,2.30
2022-08-11T10:36:21.122Z,2.20
2022-08-11T10:36:56.267Z,2.30
2022-08-11T10:38:07.277Z,2.40
2022-08-11T10:38:31.716Z,2.10
2022-08-11T10:39:06.359Z,2.60
2022-08-11T10:39:41.266Z,2.10
2022-08-11T10:40:17.687Z,2.20
2022-08-11T10:41:11.314Z,2.40
2022-08-11T10:42:12.200Z,1.80
2022-08-11T10:43:03.282Z,2.30
2022-08-11T10:44:01.850Z,2.30
2022-08-11T10:45:02.774Z,1.90
2022-08-11T10:46:48.214Z,2.30
2022-08-11T10:47:35.444Z,2.40
2022-08-11T10:48:15.215Z,3.00
2022-08-11T10:48:49.796Z,2.80
2022-08-11T10:49:23.943Z,2.90
2022-08-11T10:50:19.044Z,2.40
2022-08-11T10:51:12.687Z,2.60
2022-08-11T10:52:05.624Z,2.20
2022-08-11T10:52:59.138Z,2.60
2022-08-11T10:53:52.236Z,2.70
2022-08-11T10:54:45.651Z,2.50
2022-08-11T10:55:37.519Z,2.20
2022-08-11T10:56:29.947Z,2.70
2022-08-11T10:57:26.174Z,2.30
2022-08-11T10:58:20.290Z,2.40
2022-08-11T10:59:00.768Z,2.00
2022-08-11T10:59:37.466Z,2.10
2022-08-11T11:00:17.668Z,2.50
2022-08-11T11:00:57.703Z,2.60
2022-08-11T11:01:34.816Z,2.60
2022-08-11T11:02:15.113Z,2.30
2022-08-11T11:03:22.229Z,2.30
2022-08-11T11:03:44.335Z,2.20
2022-08-11T11:04:23.455Z,2.70
2022-08-11T11:05:15.890Z,2.30
2022-08-11T11:06:28.608Z,2.40
2022-08-11T11:06:53.001Z,2.50
2022-08-11T11:08:03.957Z,2.40
2022-08-11T11:08:55.495Z,2.50
2022-08-11T11:09:45.033Z,2.30
2022-08-11T11:10:18.816Z,2.00
2022-08-11T11:10:53.705Z,2.00
2022-08-11T11:11:49.519Z,2.60
2022-08-11T11:12:48.474Z,2.20
2022-08-11T11:13:53.230Z,2.50
2022-08-11T11:14:58.279Z,2.70
2022-08-11T11:15:55.905Z,2.60
2022-08-11T11:16:50.669Z,2.00
2022-08-11T11:18:02.071Z,2.10
2022-08-11T11:18:37.484Z,2.10
2022-08-11T11:19:14.119Z,2.80
2022-08-11T11:19:51.785Z,2.60
2022-08-11T11:20:47.049Z,2.50
2022-08-11T11:21:22.307Z,2.20